Latest Weather Observations for Cape Grim

IDT60801

Issued at 8:51 am EST Tuesday 17 September 2019 (issued every 10 minutes, with the page automatically refreshed every 10 minutes)

About weather observations | Map of weather stations | Latest weather observations for TAS | Other Formats
Station Details ID: 091331 Name: CAPE GRIM Lat: -40.68 Lon: 144.69 Height: 86.0 m
Data from the previous 72 hours. | See also: Recent months at Cape Grim
Date/Time
EST
Temp
°C
App
Temp
°C
Dew
Point
°C
Rel
Hum
%
Delta-T
°C
Wind Press
QNH
hPa
Press
MSL
hPa
Rain since
9am
mm
Dir  Spd
km/h
Gust
km/h
Spd
kts
Gust
kts
17/08:30am 7.9 4.4 5.5 85 1.1 NNE 13 15 7 8 1028.7 1028.8 0.8
17/08:00am 7.4 4.5 4.7 83 1.2 NE 9 13 5 7 1028.5 1028.6 0.8
17/07:30am 5.8 2.3 3.5 85 1.0 NE 11 13 6 7 1028.2 1028.3 0.8
17/07:00am 5.3 1.7 2.8 84 1.0 ENE 11 13 6 7 1027.8 1027.9 0.8
17/06:30am 5.1 1.4 2.6 84 1.0 ESE 11 11 6 6 1027.5 1027.6 0.8
17/06:00am 4.1 -0.1 1.5 83 1.0 ESE 13 17 7 9 1027.0 1027.1 0.8
17/05:30am 5.4 2.7 2.4 81 1.2 E 6 7 3 4 1026.5 1026.6 0.8
17/05:00am 4.9 1.9 1.7 80 1.3 E 7 9 4 5 1026.4 1026.5 0.8
17/04:30am 5.2 2.4 1.9 79 1.3 ESE 6 7 3 4 1026.2 1026.3 0.8
17/04:00am 5.2 2.2 2.0 80 1.3 SE 7 9 4 5 1026.2 1026.3 0.8
17/03:30am 5.2 2.2 2.0 80 1.3 ESE 7 9 4 5 1026.2 1026.3 0.8
17/03:00am 5.1 2.1 2.1 81 1.2 SE 7 7 4 4 1026.2 1026.3 0.8
17/02:30am 4.7 1.7 1.7 81 1.2 ESE 7 9 4 5 1026.6 1026.7 0.8
17/02:00am 5.2 1.9 2.2 81 1.2 SSE 9 11 5 6 1026.5 1026.6 0.8
17/01:30am 4.1 -0.9 1.5 83 1.0 ESE 17 19 9 10 1026.8 1026.9 0.8
17/01:00am 5.0 0.8 1.8 80 1.3 SSE 13 19 7 10 1026.9 1027.0 0.8
17/12:30am 6.2 2.2 2.7 78 1.4 SSE 13 17 7 9 1026.9 1027.0 0.8
17/12:00am 7.5 2.4 3.0 73 1.9 SW 19 26 10 14 1026.8 1026.9 0.8
 
Date/Time
EST
Temp
°C
App
Temp
°C
Dew
Point
°C
Rel
Hum
%
Delta-T
°C
Wind Press
QNH
hPa
Press
MSL
hPa
Rain since
9am
mm
Dir  Spd
km/h
Gust
km/h
Spd
kts
Gust
kts
16/11:30pm 6.0 2.7 2.3 77 1.5 SSE 9 15 5 8 1026.7 1026.8 0.8
16/11:00pm 6.1 2.0 2.2 76 1.6 S 13 17 7 9 1026.7 1026.8 0.8
16/10:30pm 5.7 1.6 2.4 79 1.3 S 13 19 7 10 1026.6 1026.7 0.8
16/10:00pm 5.6 1.9 2.1 78 1.4 S 11 15 6 8 1026.4 1026.5 0.8
16/09:30pm 5.6 1.4 1.5 75 1.6 SSE 13 20 7 11 1026.2 1026.3 0.8
16/09:00pm 6.7 1.4 2.0 72 1.9 S 19 30 10 16 1025.8 1025.9 0.8
16/08:30pm 7.6 1.5 2.9 72 2.0 S 24 35 13 19 1025.7 1025.8 0.8
16/08:00pm 7.6 0.8 2.9 72 2.0 SSW 28 37 15 20 1025.5 1025.6 0.8
16/07:30pm 7.6 1.9 3.1 73 1.9 SSW 22 32 12 17 1025.1 1025.2 0.8
16/07:00pm 7.2 -1.0 2.9 74 1.8 SSW 35 56 19 30 1024.3 1024.4 0.8
16/06:30pm 8.0 0.0 1.8 65 2.6 SW 33 48 18 26 1023.8 1023.9 0.8
16/06:00pm 8.1 -0.3 1.7 64 2.6 SSW 35 46 19 25 1023.3 1023.4 0.8
16/05:30pm 8.1 0.4 2.1 66 2.5 SSW 32 46 17 25 1022.9 1023.0 0.8
16/05:21pm 8.1 1.4 3.4 72 2.0 SSW 28 46 15 25 1022.7 1022.8 0.8
16/05:00pm 7.2 -0.1 2.5 72 1.9 S 30 41 16 22 1022.5 1022.6 0.8
16/04:35pm 8.8 1.1 3.4 69 2.3 SW 33 54 18 29 1022.1 1022.2 0.8
16/04:30pm 8.8 1.1 3.2 68 2.4 SW 33 50 18 27 1022.1 1022.2 0.8
16/04:00pm 8.6 -0.3 2.8 67 2.5 SSW 39 52 21 28 1021.7 1021.8 0.8
16/03:30pm 8.7 0.2 3.3 69 2.3 SSW 37 54 20 29 1021.5 1021.6 0.8
16/03:00pm 8.2 -1.6 3.3 71 2.1 SW 44 56 24 30 1021.2 1021.3 0.8
16/02:30pm 9.2 0.3 2.8 64 2.7 SW 39 57 21 31 1020.8 1020.9 0.8
16/02:00pm 9.1 0.2 2.9 65 2.6 SW 39 59 21 32 1020.5 1020.6 0.8
16/01:54pm 9.3 0.4 2.9 64 2.7 SW 39 59 21 32 1020.4 1020.5 0.8
16/01:30pm 8.9 -0.6 4.1 72 2.1 SSW 43 56 23 30 1020.2 1020.3 0.8
16/01:00pm 8.9 -0.8 2.7 65 2.6 SW 43 57 23 31 1020.1 1020.2 0.8
16/12:30pm 8.9 -2.1 2.9 66 2.6 SW 50 61 27 33 1020.0 1020.1 0.8
16/12:00pm 8.8 -1.3 3.8 71 2.2 SW 46 57 25 31 1019.8 1019.9 0.8
16/11:30am 7.4 -2.0 4.2 80 1.4 SW 43 57 23 31 1019.8 1019.9 0.8
16/11:07am 8.7 0.2 5.1 78 1.6 SW 39 61 21 33 1019.2 1019.2 0.6
16/11:00am 8.0 -0.2 4.6 79 1.5 SW 37 50 20 27 1019.3 1019.3 0.6
16/10:44am 6.1 -5.6 3.3 82 1.2 SW 54 72 29 39 1019.5 1019.6 0.4
16/10:41am 6.2 -4.8 3.0 80 1.3 SW 50 72 27 39 1019.4 1019.4 0.4
16/10:36am 8.1 -1.4 3.9 75 1.8 SW 43 65 23 35 1019.0 1019.0 0.4
16/10:30am 8.3 -1.3 4.3 76 1.8 SW 44 59 24 32 1018.9 1018.9 0.4
16/10:00am 8.4 0.7 5.2 80 1.4 SW 35 46 19 25 1018.7 1018.7 0.4
16/09:30am 6.7 -2.0 4.2 84 1.1 SSW 39 65 21 35 1018.4 1018.4 0.4
16/09:00am 9.0 -2.4 3.0 66 2.6 SW 52 70 28 38 1017.8 1017.8 1.0
16/08:30am 8.3 -2.6 3.6 72 2.0 SW 50 67 27 36 1017.3 1017.4 1.0
16/08:12am 7.9 -1.8 3.8 75 1.8 SW 44 63 24 34 1017.0 1017.1 1.0
16/08:00am 7.3 -3.6 3.7 78 1.5 SW 50 65 27 35 1016.8 1016.9 1.0
16/07:41am 8.1 -2.4 3.9 75 1.8 SW 48 80 26 43 1016.3 1016.4 1.0
16/07:30am 8.3 -1.7 4.5 77 1.7 SW 46 61 25 33 1016.3 1016.4 1.0
16/07:00am 8.0 -3.5 4.4 78 1.6 SW 54 72 29 39 1015.7 1015.8 1.0
16/06:30am 8.2 -2.6 4.0 75 1.8 SW 50 69 27 37 1015.2 1015.3 0.6
16/06:01am 8.2 -4.7 3.9 74 1.9 SW 61 83 33 45 1014.8 1014.9 0.6
16/06:00am 8.3 -4.3 3.8 73 2.0 SW 59 76 32 41 1014.7 1014.8 0.6
16/05:47am 8.2 -4.9 2.9 69 2.2 SW 61 80 33 43 1014.5 1014.6 0.6
16/05:30am 8.5 -5.2 3.9 73 2.0 SW 65 78 35 42 1014.1 1014.2 0.6
16/05:10am 8.7 -3.8 4.1 73 2.0 SW 59 78 32 42 1013.6 1013.7 0.6
16/05:00am 8.6 -4.1 2.8 67 2.5 SW 59 78 32 42 1013.4 1013.5 0.6
16/04:30am 9.0 -1.5 3.8 70 2.3 SW 48 80 26 43 1012.8 1012.9 0.6
16/04:00am 9.1 -2.9 3.5 68 2.4 SW 56 85 30 46 1012.4 1012.5 0.6
16/03:51am 9.2 -2.8 4.6 73 2.1 SW 57 85 31 46 1012.3 1012.4 0.6
16/03:48am 9.1 -2.8 4.5 73 2.0 SW 56 80 30 43 1012.3 1012.4 0.6
16/03:30am 9.1 -1.4 3.7 69 2.4 SW 48 83 26 45 1011.9 1012.0 0.6
16/03:00am 9.4 -2.6 4.6 72 2.1 SW 57 83 31 45 1011.7 1011.8 0.6
16/02:44am 9.6 -0.7 4.8 72 2.2 SW 48 83 26 45 1011.3 1011.4 0.6
16/02:42am 9.6 0.4 5.4 75 1.9 WSW 43 72 23 39 1011.4 1011.5 0.6
16/02:34am 9.6 -0.9 5.4 75 1.9 SW 50 89 27 48 1011.4 1011.5 0.6
16/02:30am 9.7 -2.2 5.1 73 2.1 SW 57 89 31 48 1011.4 1011.5 0.6
16/02:00am 9.7 -0.9 5.3 74 2.0 WSW 50 80 27 43 1011.2 1011.3 0.6
16/01:30am 10.2 1.6 6.4 77 1.8 WSW 41 74 22 40 1010.9 1011.0 0.6
16/01:00am 10.3 0.4 6.5 77 1.8 W 48 76 26 41 1010.7 1010.8 0.6
16/12:30am 10.3 1.4 7.5 83 1.3 W 44 69 24 37 1010.8 1010.9 0.6
16/12:21am 10.3 1.6 7.7 84 1.3 W 43 65 23 35 1010.7 1010.8 0.6
16/12:00am 9.6 1.3 7.7 88 0.9 W 41 57 22 31 1011.1 1011.2 0.6
 
Date/Time
EST
Temp
°C
App
Temp
°C
Dew
Point
°C
Rel
Hum
%
Delta-T
°C
Wind Press
QNH
hPa
Press
MSL
hPa
Rain since
9am
mm
Dir  Spd
km/h
Gust
km/h
Spd
kts
Gust
kts
15/11:40pm 10.6 2.1 7.1 79 1.7 W 41 59 22 32 1010.8 1010.9 0.2
15/11:30pm 10.6 2.1 7.1 79 1.7 W 41 57 22 31 1010.9 1011.0 0.2
15/11:00pm 10.5 2.1 7.4 81 1.5 W 41 61 22 33 1011.1 1011.2 0.2
15/10:33pm 10.5 3.2 7.2 80 1.6 W 35 54 19 29 1011.2 1011.3 0.2
15/10:30pm 10.4 2.7 7.1 80 1.6 W 37 54 20 29 1011.2 1011.3 0.2
15/10:00pm 10.4 2.9 6.5 77 1.8 W 35 48 19 26 1011.3 1011.4 0.2
15/09:30pm 10.5 3.8 8.1 85 1.2 W 33 54 18 29 1011.1 1011.2 0.2
15/09:25pm 10.5 3.7 7.9 84 1.3 W 33 54 18 29 1011.2 1011.3 0.2
15/09:00pm 10.4 3.7 7.3 81 1.5 W 32 48 17 26 1011.1 1011.2 0.2
15/08:30pm 10.4 3.7 7.5 82 1.4 W 32 46 17 25 1011.5 1011.6 0.2
15/08:14pm 10.5 3.9 7.9 84 1.3 W 32 50 17 27 1011.5 1011.6 0.2
15/08:00pm 10.5 3.9 7.9 84 1.3 W 32 44 17 24 1011.7 1011.8 0.2
15/07:30pm 10.8 4.5 8.9 88 0.9 W 32 46 17 25 1011.6 1011.7 0.2
15/07:00pm 10.8 5.4 9.4 91 0.7 W 28 43 15 23 1011.3 1011.4 0.2
15/06:30pm 10.9 5.6 9.8 93 0.6 W 28 37 15 20 1011.4 1011.5 0.2
15/06:00pm 10.9 6.0 10.1 95 0.4 W 26 37 14 20 1011.1 1011.2 0.2
15/05:30pm 10.9 6.9 10.4 97 0.3 W 22 30 12 16 1011.3 1011.4 0.2
15/05:00pm 11.0 7.7 10.8 99 0.1 W 19 26 10 14 1010.7 1010.8 0.2
15/04:30pm 11.3 8.4 11.1 99 0.1 W 17 24 9 13 1010.7 1010.8 0.2
15/04:00pm 11.3 8.8 11.1 99 0.1 W 15 22 8 12 1010.8 1010.9 0.2
15/03:30pm 11.3 9.6 11.1 99 0.1 WSW 11 19 6 10 1010.8 1010.9 0.2
15/03:00pm 11.4 8.9 11.1 98 0.2 WSW 15 22 8 12 1010.8 1010.9 0.2
15/02:30pm 11.5 9.5 11.5 100 0.0 W 13 19 7 10 1011.2 1011.3 0.2
15/02:00pm 11.6 8.5 11.6 100 0.0 W 19 24 10 13 1012.0 1012.1 0.2
15/01:30pm 11.6 8.5 11.6 100 0.0 W 19 24 10 13 1012.4 1012.5 0.2
15/01:00pm 11.4 8.6 11.4 100 0.0 W 17 20 9 11 1012.4 1012.5 0.2
15/12:30pm 11.3 9.2 11.0 98 0.2 W 13 19 7 10 1012.7 1012.8 0.0
15/12:00pm 11.5 10.2 11.2 98 0.2 WSW 9 20 5 11 1013.0 1013.1 0.0
15/11:30am 12.2 10.8 12.2 100 0.0 W 11 17 6 9 1012.7 1012.8 0.0
15/11:00am 12.2 10.4 12.2 100 0.0 WSW 13 19 7 10 1013.2 1013.3 0.0
15/10:30am 12.1 10.3 12.1 100 0.0 W 13 20 7 11 1014.0 1014.1 0.0
15/10:00am 11.7 10.1 11.7 100 0.0 WSW 11 20 6 11 1014.3 1014.4 0.0
15/09:30am 11.6 10.0 11.6 100 0.0 W 11 20 6 11 1014.5 1014.6 0.0
15/09:00am 11.3 8.1 11.3 100 0.0 SW 19 24 10 13 1014.2 1014.3 5.2
15/08:46am 11.2 7.4 11.2 100 0.0 SW 22 28 12 15 1014.1 1014.2 5.2
15/08:30am 11.2 7.8 11.2 100 0.0 SW 20 28 11 15 1014.2 1014.3 5.2
15/08:00am 11.3 7.2 11.3 100 0.0 SW 24 30 13 16 1014.1 1014.2 5.2
15/07:30am 11.2 6.6 11.2 100 0.0 WSW 26 35 14 19 1014.0 1014.1 4.8
15/07:17am 11.3 7.2 11.3 100 0.0 SW 24 35 13 19 1014.1 1014.2 4.6
15/07:16am 11.2 7.0 11.2 100 0.0 SW 24 35 13 19 1014.2 1014.3 4.2
15/07:00am 11.3 6.8 11.3 100 0.0 SW 26 37 14 20 1013.9 1014.0 4.2
15/06:30am 11.8 8.6 11.8 100 0.0 WSW 20 35 11 19 1013.6 1013.7 3.2
15/06:00am 12.0 7.7 12.0 100 0.0 W 26 43 14 23 1013.6 1013.7 2.8
15/05:49am 12.0 7.7 12.0 100 0.0 W 26 39 14 21 1013.5 1013.6 2.6
15/05:30am 12.0 7.3 12.0 100 0.0 W 28 41 15 22 1013.2 1013.3 2.6
15/05:21am 12.1 7.1 12.1 100 0.0 W 30 41 16 22 1013.2 1013.3 2.6
15/05:00am 12.1 7.1 12.1 100 0.0 W 30 41 16 22 1013.1 1013.2 2.4
15/04:30am 12.2 5.5 12.2 100 0.0 W 39 48 21 26 1013.1 1013.2 2.4
15/04:00am 12.2 5.5 12.2 100 0.0 W 39 50 21 27 1013.0 1013.1 2.4
15/03:52am 12.2 5.5 12.2 100 0.0 W 39 50 21 27 1013.0 1013.1 2.4
15/03:30am 12.3 5.2 12.3 100 0.0 W 41 52 22 28 1013.1 1013.2 2.4
15/03:00am 12.4 5.4 12.4 100 0.0 W 41 54 22 29 1013.3 1013.4 2.4
15/02:30am 12.5 5.5 12.5 100 0.0 WNW 41 50 22 27 1013.5 1013.6 2.2
15/02:00am 12.5 5.1 12.5 100 0.0 WNW 43 54 23 29 1013.8 1013.9 2.2
15/01:51am 12.5 4.9 12.5 100 0.0 WNW 44 54 24 29 1013.9 1014.0 2.2
15/01:30am 12.5 5.9 12.5 100 0.0 WNW 39 48 21 26 1014.2 1014.3 2.2
15/01:00am 12.9 7.2 12.9 100 0.0 WNW 35 48 19 26 1014.3 1014.4 2.2
15/12:30am 12.7 7.3 12.7 100 0.0 WNW 33 52 18 28 1014.9 1015.0 2.2
15/12:29am 12.7 7.5 12.7 100 0.0 NW 32 52 17 28 1015.0 1015.1 2.2
15/12:00am 12.1 6.5 12.1 100 0.0 NW 33 39 18 21 1015.5 1015.6 2.2
 
Date/Time
EST
Temp
°C
App
Temp
°C
Dew
Point
°C
Rel
Hum
%
Delta-T
°C
Wind Press
QNH
hPa
Press
MSL
hPa
Rain since
9am
mm
Dir  Spd
km/h
Gust
km/h
Spd
kts
Gust
kts
14/11:30pm 11.9 6.4 11.9 100 0.0 NW 32 44 17 24 1015.8 1015.9 2.2
14/11:00pm 11.6 6.0 11.6 100 0.0 NNW 32 39 17 21 1016.0 1016.1 2.2
14/10:30pm 11.5 7.0 11.5 100 0.0 NNW 26 32 14 17 1016.6 1016.7 2.2
14/10:00pm 11.5 7.0 11.5 100 0.0 NNW 26 35 14 19 1016.7 1016.8 2.0
14/09:30pm 11.6 6.7 11.4 99 0.1 NNW 28 33 15 18 1017.1 1017.2 2.0
14/09:00pm 11.4 6.1 11.2 99 0.1 NW 30 37 16 20 1018.1 1018.1 2.0
14/08:30pm 11.0 6.0 10.8 99 0.1 NNW 28 33 15 18 1018.4 1018.4 2.0
14/08:00pm 11.1 6.1 10.9 99 0.1 WNW 28 35 15 19 1019.5 1019.6 1.2
14/07:30pm 11.1 4.7 10.8 98 0.2 WNW 35 43 19 23 1020.0 1020.1 0.4
14/07:24pm 11.3 5.4 11.0 98 0.2 WNW 33 43 18 23 1020.3 1020.4 0.2
14/07:00pm 10.9 5.8 10.7 99 0.1 NNW 28 35 15 19 1018.2 1018.2 0.2
14/06:48pm 10.9 5.4 10.4 97 0.3 NW 30 39 16 21 1018.4 1018.4 0.2
14/06:32pm 11.1 5.2 10.5 96 0.3 NW 32 41 17 22 1018.9 1018.9 0.2
14/06:30pm 11.1 5.2 10.5 96 0.3 NW 32 43 17 23 1018.9 1018.9 0.2
14/06:00pm 10.8 5.1 9.7 93 0.6 NNW 30 41 16 22 1018.7 1018.7 0.2
14/05:30pm 10.9 4.7 9.3 90 0.8 NW 32 43 17 23 1019.1 1019.1 0.2
14/05:00pm 11.1 4.9 9.4 89 0.9 WNW 32 41 17 22 1019.8 1019.9 0.2
14/04:30pm 11.2 5.0 9.5 89 0.9 WNW 32 41 17 22 1020.0 1020.1 0.2
14/04:00pm 11.4 6.3 9.3 87 1.1 WNW 26 33 14 18 1020.4 1020.5 0.2
14/03:30pm 11.5 6.8 9.1 85 1.2 NW 24 32 13 17 1020.1 1020.2 0.2
14/03:00pm 11.8 7.0 8.8 82 1.5 NW 24 32 13 17 1020.5 1020.6 0.2
14/02:30pm 12.7 8.4 9.5 81 1.6 WNW 22 30 12 16 1020.9 1021.0 0.2
14/02:00pm 12.1 7.7 8.8 80 1.6 WNW 22 28 12 15 1021.2 1021.3 0.2
14/01:30pm 11.8 6.4 8.1 78 1.8 WNW 26 32 14 17 1021.8 1021.9 0.2
14/01:00pm 12.6 8.2 9.1 79 1.8 W 22 30 12 16 1022.0 1022.1 0.2
14/12:30pm 11.8 7.1 7.7 76 2.0 W 22 32 12 17 1022.2 1022.3 0.2
14/12:00pm 11.8 6.7 7.7 76 2.0 W 24 35 13 19 1022.5 1022.6 0.0
14/11:30am 11.5 7.3 7.6 77 1.9 W 19 30 10 16 1022.9 1023.0 0.0
14/11:00am 11.2 6.4 7.3 77 1.9 W 22 33 12 18 1023.1 1023.2 0.0
14/10:30am 11.1 6.7 7.6 79 1.7 WSW 20 39 11 21 1023.2 1023.3 0.0
14/10:00am 11.1 6.2 7.0 76 2.0 WSW 22 35 12 19 1023.3 1023.4 0.0
14/09:30am 11.2 6.7 7.1 76 2.0 WSW 20 35 11 19 1023.2 1023.3 0.0
14/09:00am 11.0 5.3 6.7 75 2.0 WSW 26 48 14 26 1023.1 1023.2 0.6

Other formats

Comma delimited format used in spreadsheet applications
http://www.bom.gov.au/fwo/IDT60801/IDT60801.95954.axf

JavaScript Object Notation format (JSON) in row-major order
http://www.bom.gov.au/fwo/IDT60801/IDT60801.95954.json

Data quality

Most of these data are generated automatically and are frequently updated. Quality checks on data are not normally performed. It is possible for incorrect values to appear. Refer to information at About Latest Weather Observations and please check the disclaimer before using these data.